Time;durP1;ratioP1;P1;durP2;ratioP2;P2;SDS_P1;SDS_P2;PMS_P1;PMS_P2;Temp;Humidity;BMP_temperature;BMP_pressure;BME280_temperature;BME280_humidity;BME280_pressure;Samples;Min_cycle;Max_cycle;Signal;HPM_P1;HPM_P2
2022/09/09 00:00:42;;;;;;;12.07;6.13;;;15.60;99.90;;;;;;5031406;28;20587;-70
2022/09/09 00:03:26;;;;;;;10.55;5.88;;;15.60;99.90;;;;;;5031362;28;20128;-71
2022/09/09 00:06:16;;;;;;;10.82;5.80;;;15.50;99.90;;;;;;5029790;28;20041;-72
2022/09/09 00:08:48;;;;;;;9.18;6.70;;;15.20;99.90;;;;;;5030113;28;20077;-71
2022/09/09 00:11:18;;;;;;;7.03;5.85;;;15.10;99.90;;;;;;5029963;28;20045;-72
2022/09/09 00:13:49;;;;;;;8.38;5.63;;;14.90;99.90;;;;;;5032696;28;20532;-72
2022/09/09 00:16:21;;;;;;;8.48;5.38;;;15.10;99.90;;;;;;5033442;28;20045;-71
2022/09/09 00:19:10;;;;;;;7.78;5.70;;;15.20;99.90;;;;;;5034819;28;20488;-71
2022/09/09 00:21:38;;;;;;;9.57;5.88;;;15.10;99.90;;;;;;5033660;28;20045;-71
2022/09/09 00:24:25;;;;;;;11.43;6.68;;;15.80;99.90;;;;;;5033087;28;20120;-71
2022/09/09 00:26:57;;;;;;;7.15;5.65;;;15.10;99.90;;;;;;5034824;28;20056;-71
2022/09/09 00:29:39;;;;;;;11.63;6.97;;;15.00;99.90;;;;;;5035022;28;20048;-71
2022/09/09 00:32:18;;;;;;;14.27;6.40;;;14.90;99.90;;;;;;5033784;28;20388;-71
2022/09/09 00:34:55;;;;;;;8.43;6.03;;;14.90;99.90;;;;;;5034423;28;20103;-71
2022/09/09 00:37:25;;;;;;;8.25;5.55;;;15.00;99.90;;;;;;5033183;28;20045;-72
2022/09/09 00:39:54;;;;;;;12.18;6.03;;;14.80;99.90;;;;;;5016621;28;20041;-70
2022/09/09 00:42:40;;;;;;;9.23;5.82;;;14.90;99.90;;;;;;5016681;28;20128;-71
2022/09/09 00:45:46;;;;;;;8.60;6.05;;;14.70;99.90;;;;;;5034099;28;20038;-70
2022/09/09 00:48:13;;;;;;;8.05;6.10;;;14.90;99.90;;;;;;5034430;28;20543;-71
2022/09/09 00:51:00;;;;;;;8.35;5.68;;;14.70;99.90;;;;;;5034279;28;20085;-71
2022/09/09 00:53:41;;;;;;;8.15;5.93;;;15.00;99.90;;;;;;5016692;28;20049;-71
2022/09/09 00:56:19;;;;;;;7.75;5.65;;;14.70;99.90;;;;;;5032549;28;20081;-71
2022/09/09 00:58:58;;;;;;;12.27;6.30;;;15.00;99.90;;;;;;5034275;28;20044;-72
2022/09/09 01:01:24;;;;;;;9.13;5.57;;;15.00;99.90;;;;;;5034176;28;20041;-71
2022/09/09 01:03:53;;;;;;;8.57;5.97;;;14.60;99.90;;;;;;5033758;28;20095;-71
2022/09/09 01:06:33;;;;;;;8.95;5.80;;;14.90;99.90;;;;;;5032737;28;20095;-70
2022/09/09 01:09:16;;;;;;;7.13;5.50;;;14.70;99.90;;;;;;5032954;28;20121;-71
2022/09/09 01:11:42;;;;;;;;;;;14.90;99.90;;;;;;5033306;28;20407;-71
2022/09/09 01:14:19;;;;;;;7.15;4.90;;;14.90;99.90;;;;;;5033598;28;19917;-71
2022/09/09 01:16:46;;;;;;;15.52;6.57;;;14.90;99.90;;;;;;5032688;28;20531;-71
2022/09/09 01:19:39;;;;;;;6.28;5.10;;;14.90;99.90;;;;;;5033686;28;20440;-71
2022/09/09 01:22:12;;;;;;;12.20;6.18;;;15.40;99.90;;;;;;5032696;28;20060;-70
2022/09/09 01:25:05;;;;;;;7.80;5.35;;;14.80;99.90;;;;;;5031708;28;20041;-71
2022/09/09 01:27:32;;;;;;;7.40;5.65;;;14.90;99.90;;;;;;5032332;28;20045;-70
2022/09/09 01:29:59;;;;;;;8.63;5.20;;;14.80;99.90;;;;;;5032173;28;20095;-71
2022/09/09 01:32:42;;;;;;;10.20;4.70;;;14.90;99.90;;;;;;5032220;28;20112;-70
2022/09/09 01:35:31;;;;;;;8.35;5.25;;;15.30;99.90;;;;;;5031831;28;20038;-71
2022/09/09 01:37:57;;;;;;;6.75;4.68;;;14.80;99.90;;;;;;4992010;28;20049;-71
2022/09/09 01:40:24;;;;;;;8.15;4.97;;;14.80;99.90;;;;;;5033504;28;20049;-72
2022/09/09 01:42:49;;;;;;;8.75;4.70;;;14.70;99.90;;;;;;5032054;28;20048;-70
2022/09/09 01:45:15;;;;;;;7.45;5.10;;;14.80;99.90;;;;;;5031535;28;20037;-70
2022/09/09 01:47:41;;;;;;;7.13;5.38;;;15.00;99.90;;;;;;5033250;28;20199;-71
2022/09/09 01:50:11;;;;;;;11.38;4.60;;;15.50;99.90;;;;;;5032960;28;20553;-71
2022/09/09 01:52:37;;;;;;;11.20;5.53;;;14.70;99.90;;;;;;5031914;28;20033;-71
2022/09/09 01:55:03;;;;;;;11.40;4.68;;;14.80;99.90;;;;;;5032844;28;20369;-71
2022/09/09 01:58:01;;;;;;;9.88;4.80;;;14.80;99.90;;;;;;5031977;28;20263;-71
2022/09/09 02:00:30;;;;;;;7.20;5.03;;;14.70;99.90;;;;;;5020941;28;20109;-71
2022/09/09 02:03:13;;;;;;;8.25;4.93;;;14.90;99.90;;;;;;5031630;28;20498;-71
2022/09/09 02:06:11;;;;;;;8.88;4.80;;;15.40;99.90;;;;;;5031499;28;20487;-71
2022/09/09 02:08:46;;;;;;;8.15;5.43;;;14.90;99.90;;;;;;5033070;28;20048;-72
2022/09/09 02:11:15;;;;;;;7.65;4.63;;;14.90;99.90;;;;;;5014937;28;20052;-72
2022/09/09 02:13:44;;;;;;;9.80;5.03;;;14.80;99.90;;;;;;5032888;28;20521;-71
2022/09/09 02:16:18;;;;;;;7.38;4.10;;;15.00;99.90;;;;;;5031124;28;20048;-71
2022/09/09 02:18:56;;;;;;;8.93;5.00;;;14.90;99.90;;;;;;5031636;28;20045;-71
2022/09/09 02:21:23;;;;;;;7.50;4.82;;;14.90;99.90;;;;;;5031384;28;20482;-71
2022/09/09 02:23:51;;;;;;;8.45;6.25;;;14.90;99.90;;;;;;5031367;28;20045;-71
2022/09/09 02:26:21;;;;;;;9.27;5.80;;;14.80;99.90;;;;;;5031086;28;20049;-72
2022/09/09 02:28:49;;;;;;;12.57;5.40;;;14.90;99.90;;;;;;5031365;28;20042;-71
2022/09/09 02:31:18;;;;;;;7.88;5.82;;;14.80;99.90;;;;;;5031074;28;20053;-71
2022/09/09 02:33:51;;;;;;;11.18;5.47;;;15.10;99.90;;;;;;5014507;28;20120;-72
2022/09/09 02:36:17;;;;;;;8.50;5.80;;;14.80;99.90;;;;;;5031929;28;20045;-71
2022/09/09 02:38:50;;;;;;;9.73;6.00;;;14.80;99.90;;;;;;5031275;28;20041;-71
2022/09/09 02:41:21;;;;;;;9.10;6.15;;;14.60;99.90;;;;;;5031135;28;20049;-72
2022/09/09 02:43:47;;;;;;;8.50;6.20;;;14.70;99.90;;;;;;5014587;28;20510;-71
2022/09/09 02:46:22;;;;;;;10.35;5.53;;;14.40;99.90;;;;;;5030771;28;20092;-71
2022/09/09 02:49:09;;;;;;;8.43;6.10;;;14.70;99.90;;;;;;5030977;28;20041;-71
2022/09/09 02:51:51;;;;;;;12.93;6.72;;;14.80;99.90;;;;;;5030699;28;20037;-71
2022/09/09 02:54:24;;;;;;;9.30;5.97;;;14.90;99.90;;;;;;5030508;28;20042;-71
2022/09/09 02:56:56;;;;;;;10.20;6.88;;;14.90;99.90;;;;;;5031977;28;20272;-71
2022/09/09 02:59:24;;;;;;;11.00;6.25;;;14.70;99.90;;;;;;5031932;28;20506;-71
2022/09/09 03:01:50;;;;;;;9.10;6.47;;;14.70;99.90;;;;;;5030863;28;20037;-71
2022/09/09 03:04:15;;;;;;;8.90;7.18;;;15.40;99.90;;;;;;5030216;28;20041;-72
2022/09/09 03:06:41;;;;;;;12.63;6.35;;;14.90;99.90;;;;;;5030583;28;20052;-71
2022/09/09 03:09:07;;;;;;;9.60;6.95;;;14.80;99.90;;;;;;5030599;28;20041;-71
2022/09/09 03:11:33;;;;;;;8.38;6.75;;;14.80;99.90;;;;;;5031643;28;20076;-71
2022/09/09 03:13:59;;;;;;;13.02;7.20;;;14.80;99.90;;;;;;5030517;28;20034;-71
2022/09/09 03:16:24;;;;;;;9.85;6.53;;;14.80;99.90;;;;;;5013878;28;20107;-71
2022/09/09 03:18:50;;;;;;;8.95;6.28;;;14.80;99.90;;;;;;5030413;28;20120;-71
2022/09/09 03:21:16;;;;;;;9.52;6.45;;;14.80;99.90;;;;;;5030385;28;20096;-72
2022/09/09 03:23:41;;;;;;;9.95;6.72;;;15.30;99.90;;;;;;5031621;28;20037;-71
2022/09/09 03:26:08;;;;;;;10.45;7.18;;;14.80;99.90;;;;;;5029951;28;20076;-71
2022/09/09 03:28:33;;;;;;;15.07;7.55;;;14.50;99.90;;;;;;5030386;28;20045;-71
2022/09/09 03:31:05;;;;;;;9.30;6.68;;;14.80;99.90;;;;;;5030565;28;20049;-71
2022/09/09 03:33:31;;;;;;;11.40;7.65;;;14.80;99.90;;;;;;5031727;28;20064;-71
2022/09/09 03:35:57;;;;;;;10.13;7.18;;;15.10;99.90;;;;;;5031262;28;20455;-71
2022/09/09 03:38:24;;;;;;;8.50;6.25;;;14.90;99.90;;;;;;5013739;28;20040;-71
2022/09/09 03:40:57;;;;;;;15.23;7.05;;;14.80;99.90;;;;;;5013814;28;20043;-71
2022/09/09 03:43:23;;;;;;;;;;;14.90;99.90;;;;;;5030919;28;20042;-71
2022/09/09 03:45:49;;;;;;;10.00;6.72;;;14.90;99.90;;;;;;5013445;28;19964;-71
2022/09/09 03:48:15;;;;;;;15.40;8.23;;;14.70;99.90;;;;;;5017128;28;20470;-71
2022/09/09 03:50:45;;;;;;;11.80;6.90;;;14.70;99.90;;;;;;5034170;28;20041;-71
2022/09/09 03:53:11;;;;;;;10.85;7.90;;;14.60;99.90;;;;;;5033922;28;20044;-71
2022/09/09 03:55:37;;;;;;;8.32;7.47;;;14.90;99.90;;;;;;5017492;28;20029;-71
2022/09/09 03:58:02;;;;;;;10.27;7.72;;;14.80;99.90;;;;;;5034245;28;20180;-71
2022/09/09 04:00:28;;;;;;;9.63;7.57;;;14.80;99.90;;;;;;5035288;28;20056;-71
2022/09/09 04:02:57;;;;;;;11.05;7.85;;;15.20;99.90;;;;;;5017525;28;20411;-71
2022/09/09 04:05:23;;;;;;;9.32;6.97;;;14.90;99.90;;;;;;5033529;28;20099;-71
2022/09/09 04:07:48;;;;;;;13.20;7.65;;;14.80;99.90;;;;;;5033693;28;20041;-72
2022/09/09 04:10:15;;;;;;;12.73;8.00;;;14.70;99.90;;;;;;5035203;28;20046;-71
2022/09/09 04:12:41;;;;;;;13.25;7.85;;;14.80;99.90;;;;;;5035044;28;20042;-71
2022/09/09 04:15:07;;;;;;;9.07;7.15;;;14.80;99.90;;;;;;5034241;28;20589;-71
2022/09/09 04:17:32;;;;;;;12.70;7.50;;;14.70;99.90;;;;;;5033553;28;20033;-71
2022/09/09 04:19:58;;;;;;;11.93;7.85;;;15.00;99.90;;;;;;5033761;28;20044;-71
2022/09/09 04:22:24;;;;;;;11.05;7.85;;;14.90;99.90;;;;;;5034944;28;20396;-71
2022/09/09 04:24:49;;;;;;;13.10;8.35;;;14.70;99.90;;;;;;5033258;28;20124;-71
2022/09/09 04:27:15;;;;;;;11.68;7.03;;;14.80;99.90;;;;;;5034752;28;20037;-71
2022/09/09 04:29:40;;;;;;;11.15;7.10;;;14.90;99.90;;;;;;5016875;28;20041;-71
2022/09/09 04:32:06;;;;;;;10.43;6.55;;;14.90;99.90;;;;;;5033541;28;20069;-71
2022/09/09 04:34:32;;;;;;;11.70;7.68;;;14.90;99.90;;;;;;5034383;28;20037;-72
2022/09/09 04:36:58;;;;;;;8.48;6.50;;;15.20;99.90;;;;;;5033418;28;20106;-71
2022/09/09 04:39:24;;;;;;;8.77;5.85;;;15.00;99.90;;;;;;5033182;28;20547;-72
2022/09/09 04:41:50;;;;;;;9.55;6.22;;;14.90;99.90;;;;;;5016804;28;20041;-71
2022/09/09 04:44:15;;;;;;;9.38;5.93;;;14.90;99.90;;;;;;5034228;28;20041;-71
2022/09/09 04:46:41;;;;;;;9.95;6.82;;;15.60;99.90;;;;;;5033323;28;20391;-71
2022/09/09 04:49:06;;;;;;;11.07;6.32;;;15.00;99.90;;;;;;5032934;28;20495;-71
2022/09/09 04:51:32;;;;;;;11.43;7.55;;;14.90;99.90;;;;;;5034417;28;20128;-71
2022/09/09 04:53:58;;;;;;;11.05;6.57;;;15.00;99.90;;;;;;5033967;28;20039;-71
2022/09/09 04:56:23;;;;;;;12.13;7.15;;;15.00;99.90;;;;;;5033070;28;20029;-71
2022/09/09 04:58:55;;;;;;;11.52;7.22;;;15.00;99.90;;;;;;5033726;28;20495;-72
2022/09/09 05:01:21;;;;;;;9.77;6.80;;;14.80;99.90;;;;;;5033222;28;20087;-71
2022/09/09 05:03:47;;;;;;;10.55;7.05;;;15.00;99.90;;;;;;5033956;28;20121;-71
2022/09/09 05:06:18;;;;;;;13.90;8.48;;;15.10;99.90;;;;;;5032062;28;20121;-71
2022/09/09 05:08:45;;;;;;;10.52;7.60;;;15.00;99.90;;;;;;5030165;28;20044;-71
2022/09/09 05:11:19;;;;;;;9.73;7.88;;;15.10;99.90;;;;;;5028756;28;20096;-71
2022/09/09 05:13:46;;;;;;;12.07;8.48;;;15.00;99.90;;;;;;5030704;28;20171;-70
2022/09/09 05:16:12;;;;;;;9.43;7.00;;;14.90;99.90;;;;;;5048275;28;20037;-71
2022/09/09 05:18:39;;;;;;;11.82;8.38;;;15.00;99.90;;;;;;5031417;28;20047;-72
2022/09/09 05:21:05;;;;;;;11.65;9.30;;;14.80;99.90;;;;;;5032589;28;20495;-72
2022/09/09 05:23:31;;;;;;;13.43;9.02;;;14.90;99.90;;;;;;5033660;28;20041;-71
2022/09/09 05:25:57;;;;;;;16.60;10.02;;;14.90;99.90;;;;;;5064538;22;20037;-71
2022/09/09 05:28:25;;;;;;;11.15;8.85;;;14.90;99.90;;;;;;5052189;28;20171;-72
2022/09/09 05:31:07;;;;;;;15.40;9.50;;;15.70;99.90;;;;;;5052009;28;20545;-71
2022/09/09 05:33:34;;;;;;;12.68;8.10;;;15.10;99.90;;;;;;5053741;28;20037;-72
2022/09/09 05:36:02;;;;;;;14.02;9.65;;;15.20;99.90;;;;;;5052903;28;20037;-71
2022/09/09 05:38:29;;;;;;;12.98;9.38;;;14.80;99.90;;;;;;5053065;28;20052;-71
2022/09/09 05:40:56;;;;;;;11.35;8.55;;;15.00;99.90;;;;;;5051636;28;20146;-72
2022/09/09 05:43:22;;;;;;;12.75;9.02;;;15.40;99.90;;;;;;5052230;28;20472;-72
2022/09/09 05:45:58;;;;;;;15.32;10.27;;;15.10;99.90;;;;;;5051090;28;20138;-72
2022/09/09 05:48:23;;;;;;;11.80;9.93;;;15.00;99.90;;;;;;5051940;28;20518;-74
2022/09/09 05:50:54;;;;;;;9.23;7.82;;;15.60;99.90;;;;;;5052628;28;20036;-72
2022/09/09 05:53:20;;;;;;;12.35;9.93;;;15.30;99.90;;;;;;5051753;28;20032;-72
2022/09/09 05:55:45;;;;;;;14.30;8.38;;;15.00;99.90;;;;;;5050917;28;20515;-71
2022/09/09 05:58:11;;;;;;;14.73;8.90;;;15.00;99.90;;;;;;5034686;28;20044;-71
2022/09/09 06:00:37;;;;;;;9.60;7.85;;;15.20;99.90;;;;;;5051213;28;20146;-72
2022/09/09 06:03:03;;;;;;;10.85;7.38;;;15.50;99.90;;;;;;5034749;28;20509;-72
2022/09/09 06:05:30;;;;;;;9.73;7.88;;;15.20;99.90;;;;;;5051172;28;20117;-72
2022/09/09 06:07:55;;;;;;;15.45;8.45;;;15.10;99.90;;;;;;5052594;28;20047;-70
2022/09/09 06:10:21;;;;;;;11.50;8.07;;;15.20;99.90;;;;;;5050119;28;20045;-71
2022/09/09 06:12:47;;;;;;;13.90;8.88;;;15.20;99.90;;;;;;5051030;28;20548;-71
2022/09/09 06:15:15;;;;;;;10.57;7.57;;;15.10;99.90;;;;;;5052101;28;20044;-72
2022/09/09 06:17:41;;;;;;;11.45;7.63;;;15.00;99.90;;;;;;5052406;28;20048;-71
2022/09/09 06:20:09;;;;;;;10.63;7.57;;;15.30;99.90;;;;;;5047715;28;21443;-71
2022/09/09 06:22:34;;;;;;;9.95;7.72;;;15.50;99.90;;;;;;5056447;28;20495;-72
2022/09/09 06:25:00;;;;;;;12.25;9.18;;;15.20;99.90;;;;;;5059717;28;20051;-71
2022/09/09 06:27:28;;;;;;;10.82;7.72;;;15.40;99.90;;;;;;5042296;28;20418;-72
2022/09/09 06:29:54;;;;;;;11.57;8.20;;;15.30;99.90;;;;;;5031831;28;20037;-73
2022/09/09 06:32:19;;;;;;;13.05;8.18;;;15.30;99.90;;;;;;5055227;28;20059;-72
2022/09/09 06:34:45;;;;;;;12.23;9.07;;;14.20;99.90;;;;;;5055957;28;20036;-71
2022/09/09 06:37:11;;;;;;;10.07;8.10;;;15.30;99.90;;;;;;5049733;28;20045;-73
2022/09/09 06:39:36;;;;;;;12.25;8.35;;;15.30;99.90;;;;;;5050465;28;20575;-74
2022/09/09 06:42:02;;;;;;;12.73;8.73;;;15.30;99.90;;;;;;5038562;28;20029;-72
2022/09/09 06:44:28;;;;;;;14.32;9.55;;;15.40;99.90;;;;;;5055536;28;20442;-71
2022/09/09 06:46:53;;;;;;;10.43;8.15;;;15.20;99.90;;;;;;5062342;28;20055;-72
2022/09/09 06:49:19;;;;;;;12.57;7.90;;;15.30;99.90;;;;;;5055254;28;20091;-75
2022/09/09 06:51:44;;;;;;;11.90;8.02;;;15.30;99.90;;;;;;5059937;28;20071;-74
2022/09/09 06:54:11;;;;;;;15.43;9.32;;;15.30;99.90;;;;;;5070508;28;20108;-74
2022/09/09 06:56:41;;;;;;;12.13;8.30;;;15.20;99.90;;;;;;5070469;28;20433;-74
2022/09/09 06:59:08;;;;;;;11.13;7.75;;;15.30;99.90;;;;;;5071760;28;20619;-74
2022/09/09 07:01:40;;;;;;;11.10;8.27;;;15.60;99.90;;;;;;5070708;28;20410;-74
2022/09/09 07:04:07;;;;;;;9.50;7.18;;;15.50;99.90;;;;;;5053205;28;20032;-73
2022/09/09 07:06:40;;;;;;;10.40;8.15;;;15.50;99.90;;;;;;5070134;28;20131;-74
2022/09/09 07:09:08;;;;;;;10.63;7.30;;;15.50;99.90;;;;;;5070182;28;20049;-74
2022/09/09 07:11:42;;;;;;;8.32;6.72;;;15.60;99.90;;;;;;5070134;28;20067;-74
2022/09/09 07:14:08;;;;;;;11.70;7.55;;;15.60;99.90;;;;;;5071298;28;20050;-74
2022/09/09 07:16:36;;;;;;;10.38;6.68;;;15.60;99.90;;;;;;5071661;28;20505;-74
2022/09/09 07:19:02;;;;;;;10.10;6.72;;;15.80;99.90;;;;;;5071585;28;20421;-74
2022/09/09 07:21:30;;;;;;;10.63;7.18;;;15.70;99.90;;;;;;5071178;28;20115;-74
2022/09/09 07:23:56;;;;;;;8.43;6.70;;;15.90;99.90;;;;;;5069814;28;20056;-74
2022/09/09 07:26:28;;;;;;;11.82;6.40;;;15.80;99.90;;;;;;5070114;28;20040;-74
2022/09/09 07:28:55;;;;;;;9.43;6.93;;;15.90;99.90;;;;;;5053400;28;20406;-74
2022/09/09 07:31:30;;;;;;;10.70;6.55;;;16.00;99.90;;;;;;5069908;28;20047;-75
2022/09/09 07:33:56;;;;;;;8.73;6.15;;;15.90;99.90;;;;;;5069673;28;20455;-74
2022/09/09 07:36:25;;;;;;;7.45;6.43;;;16.20;99.90;;;;;;5071070;28;20094;-75
2022/09/09 07:39:03;;;;;;;9.48;6.03;;;16.20;99.90;;;;;;5051773;28;20078;-74
2022/09/09 07:41:35;;;;;;;9.43;5.63;;;16.40;99.90;;;;;;5032836;28;20037;-74
2022/09/09 07:44:10;;;;;;;10.07;5.47;;;16.30;99.90;;;;;;5029248;28;20045;-74
2022/09/09 07:46:39;;;;;;;9.70;5.93;;;16.40;99.90;;;;;;5050577;28;20492;-73
2022/09/09 07:49:05;;;;;;;11.00;5.70;;;16.40;99.90;;;;;;5049618;28;20040;-75
2022/09/09 07:51:34;;;;;;;9.73;5.90;;;16.50;99.90;;;;;;5049356;28;20043;-74
2022/09/09 07:54:03;;;;;;;8.50;5.38;;;16.70;99.90;;;;;;5049462;28;20115;-74
2022/09/09 07:56:30;;;;;;;11.55;5.40;;;16.40;99.90;;;;;;5032890;28;20048;-74
2022/09/09 07:58:57;;;;;;;8.75;5.55;;;16.60;99.90;;;;;;5043654;28;20045;-75
2022/09/09 08:01:27;;;;;;;7.03;5.03;;;16.90;99.90;;;;;;5048647;28;20110;-74
2022/09/09 08:03:59;;;;;;;8.25;5.63;;;16.90;99.90;;;;;;5046580;28;20048;-73
2022/09/09 08:06:26;;;;;;;11.27;5.43;;;16.70;99.90;;;;;;5050895;28;20500;-75
2022/09/09 08:08:54;;;;;;;9.57;5.38;;;16.90;99.90;;;;;;5032378;28;20037;-75
2022/09/09 08:11:22;;;;;;;9.10;4.88;;;17.10;99.90;;;;;;5050765;28;20045;-75
2022/09/09 08:13:50;;;;;;;7.60;5.20;;;17.40;99.90;;;;;;5032506;28;20049;-75
2022/09/09 08:16:21;;;;;;;10.85;5.00;;;17.80;99.90;;;;;;5049178;28;20029;-72
2022/09/09 08:18:47;;;;;;;7.50;4.75;;;17.60;99.90;;;;;;5032707;28;20044;-74
2022/09/09 08:21:17;;;;;;;8.75;4.55;;;18.10;99.90;;;;;;5032773;28;20045;-74
2022/09/09 08:23:45;;;;;;;6.72;4.97;;;17.50;99.90;;;;;;5049166;28;20040;-75
2022/09/09 08:26:14;;;;;;;7.70;4.93;;;17.40;99.90;;;;;;5046871;28;20048;-74
2022/09/09 08:28:40;;;;;;;6.72;4.80;;;17.60;99.90;;;;;;5049345;28;20044;-74
2022/09/09 08:31:30;;;;;;;11.52;5.47;;;17.70;99.90;;;;;;5046245;28;20411;-74
2022/09/09 08:33:57;;;;;;;9.63;5.03;;;17.50;99.90;;;;;;5041639;28;20049;-75
2022/09/09 08:36:28;;;;;;;10.27;5.38;;;17.70;99.90;;;;;;5032751;28;20408;-74
2022/09/09 08:38:56;;;;;;;9.40;4.55;;;17.60;99.90;;;;;;5048127;28;20147;-74
2022/09/09 08:41:53;;;;;;;7.50;5.60;;;17.70;99.90;;;;;;5054200;28;20045;-75
2022/09/09 08:44:27;;;;;;;7.50;5.00;;;17.60;99.90;;;;;;5030673;28;20398;-74
2022/09/09 08:47:24;;;;;;;11.98;5.57;;;17.60;99.90;;;;;;5052450;28;20132;-74
2022/09/09 08:50:06;;;;;;;10.77;5.13;;;17.50;99.90;;;;;;5053987;28;20044;-74
2022/09/09 08:52:54;;;;;;;7.18;4.60;;;17.70;99.90;;;;;;5053573;28;20067;-75
2022/09/09 08:55:37;;;;;;;8.23;4.57;;;18.10;99.90;;;;;;5053371;28;20045;-75
2022/09/09 08:58:15;;;;;;;10.90;4.63;;;18.20;99.90;;;;;;5053874;28;20446;-74
2022/09/09 09:01:08;;;;;;;6.72;3.97;;;18.00;99.90;;;;;;5052140;28;20036;-74
2022/09/09 09:04:11;;;;;;;13.45;4.75;;;18.10;99.90;;;;;;5052182;28;20131;-74
2022/09/09 09:07:12;;;;;;;9.13;4.30;;;17.90;99.90;;;;;;5052080;28;20049;-75
2022/09/09 09:09:58;;;;;;;9.57;3.67;;;18.30;99.90;;;;;;5053129;28;20045;-75
2022/09/09 09:12:28;;;;;;;13.73;4.22;;;18.40;99.90;;;;;;5035563;28;20037;-74
2022/09/09 09:14:56;;;;;;;10.80;4.25;;;18.50;99.90;;;;;;5051532;28;20048;-75
2022/09/09 09:17:24;;;;;;;6.78;3.53;;;18.70;99.90;;;;;;5053407;28;20041;-74
2022/09/09 09:19:50;;;;;;;11.65;3.50;;;19.50;99.90;;;;;;5035741;28;20081;-75
2022/09/09 09:22:26;;;;;;;9.80;3.38;;;19.20;99.90;;;;;;5051903;28;20072;-74
2022/09/09 09:24:54;;;;;;;10.65;4.43;;;18.70;99.90;;;;;;5051251;28;20045;-74
2022/09/09 09:27:28;;;;;;;7.43;3.63;;;18.50;99.90;;;;;;5053130;28;20493;-73
2022/09/09 09:29:57;;;;;;;9.45;3.00;;;18.30;99.90;;;;;;5051375;28;20498;-74
2022/09/09 09:32:26;;;;;;;9.43;3.15;;;18.40;99.90;;;;;;5048760;28;20051;-74
2022/09/09 09:34:56;;;;;;;8.40;2.90;;;18.40;99.90;;;;;;5051123;28;20033;-75
2022/09/09 09:37:34;;;;;;;8.65;4.07;;;18.80;99.90;;;;;;5052812;28;20040;-74
2022/09/09 09:40:12;;;;;;;11.30;3.30;;;18.90;99.90;;;;;;5051622;28;20045;-74
2022/09/09 09:42:47;;;;;;;8.45;2.90;;;18.40;99.90;;;;;;5051453;28;20090;-76
2022/09/09 09:45:43;;;;;;;9.68;2.72;;;18.30;99.90;;;;;;5051020;28;20041;-73
2022/09/09 09:48:12;;;;;;;6.47;3.00;;;18.20;99.90;;;;;;5034739;28;20418;-73
2022/09/09 09:50:50;;;;;;;8.45;3.05;;;18.10;99.90;;;;;;5051547;28;20040;-74
2022/09/09 09:53:33;;;;;;;10.27;3.33;;;18.30;99.90;;;;;;5051174;28;20029;-74
2022/09/09 09:56:04;;;;;;;5.53;2.70;;;18.20;99.90;;;;;;5051099;28;20032;-74
2022/09/09 09:58:33;;;;;;;8.55;2.00;;;18.50;99.90;;;;;;5050936;28;20514;-73
2022/09/09 10:01:00;;;;;;;6.10;2.15;;;18.40;99.90;;;;;;5050077;28;20047;-75
2022/09/09 10:03:37;;;;;;;6.47;2.10;;;18.60;99.90;;;;;;5050041;28;20107;-75
2022/09/09 10:06:03;;;;;;;9.27;2.63;;;19.20;99.90;;;;;;5033869;28;20044;-75
2022/09/09 10:08:33;;;;;;;10.75;2.38;;;18.90;99.90;;;;;;5051514;28;20044;-75
2022/09/09 10:11:26;;;;;;;6.35;2.40;;;18.70;99.90;;;;;;5052512;28;20037;-75
2022/09/09 10:14:08;;;;;;;9.57;2.95;;;18.90;99.90;;;;;;5049943;28;20074;-73
2022/09/09 10:16:41;;;;;;;6.43;2.40;;;18.90;99.90;;;;;;5050122;28;20499;-75
2022/09/09 10:19:14;;;;;;;6.75;2.15;;;19.20;99.90;;;;;;5050523;28;20037;-74
2022/09/09 10:21:51;;;;;;;6.57;2.33;;;18.60;99.90;;;;;;5032592;28;20048;-76
2022/09/09 10:24:29;;;;;;;6.43;2.08;;;18.70;99.90;;;;;;5050109;28;20041;-75
2022/09/09 10:27:22;;;;;;;7.22;1.95;;;18.50;99.90;;;;;;5050370;28;20121;-75
2022/09/09 10:30:14;;;;;;;5.75;1.80;;;18.70;99.90;;;;;;5041953;28;20041;-75
2022/09/09 10:32:52;;;;;;;7.65;1.95;;;18.60;99.90;;;;;;5033557;28;20037;-74
2022/09/09 10:35:39;;;;;;;8.93;2.05;;;18.90;99.90;;;;;;5033380;28;20043;-74
2022/09/09 10:38:29;;;;;;;6.63;2.17;;;19.40;99.90;;;;;;5050603;28;20045;-75
2022/09/09 10:40:56;;;;;;;6.57;1.88;;;19.60;99.90;;;;;;5050215;28;20040;-75
2022/09/09 10:43:24;;;;;;;4.78;1.67;;;19.60;99.90;;;;;;5050451;28;20057;-72
2022/09/09 10:46:20;;;;;;;10.95;1.98;;;19.60;99.90;;;;;;5033137;28;20055;-72
2022/09/09 10:48:59;;;;;;;6.30;2.00;;;19.40;99.90;;;;;;5041515;28;20075;-72
2022/09/09 10:51:49;;;;;;;8.60;1.95;;;19.70;99.90;;;;;;5051558;28;20041;-72
2022/09/09 10:54:14;;;;;;;3.38;1.33;;;19.30;99.90;;;;;;5038878;28;20581;-76
2022/09/09 10:56:44;;;;;;;5.25;2.00;;;19.50;99.90;;;;;;5033140;28;20037;-73
2022/09/09 10:59:34;;;;;;;15.38;3.80;;;19.50;99.90;;;;;;5050960;28;20040;-73
2022/09/09 11:02:12;;;;;;;6.05;1.77;;;19.60;99.90;;;;;;5029654;28;20065;-73
2022/09/09 11:04:44;;;;;;;6.50;1.60;;;19.70;99.90;;;;;;5058113;28;20041;-73
2022/09/09 11:07:18;;;;;;;4.63;1.85;;;19.70;99.90;;;;;;5054722;28;20542;-74
2022/09/09 11:09:53;;;;;;;6.28;2.40;;;20.10;99.90;;;;;;5060223;28;20119;-74
2022/09/09 11:12:23;;;;;;;7.65;1.30;;;19.70;99.90;;;;;;5058199;28;20081;-75
2022/09/09 11:14:59;;;;;;;6.53;1.60;;;20.10;99.90;;;;;;5058998;28;20083;-75
2022/09/09 11:17:40;;;;;;;6.75;2.22;;;20.20;99.90;;;;;;5054725;28;20029;-75
2022/09/09 11:20:11;;;;;;;9.25;1.60;;;20.90;99.90;;;;;;5046530;28;20044;-73
2022/09/09 11:22:44;;;;;;;5.43;1.33;;;19.80;99.90;;;;;;5056286;28;20051;-72
2022/09/09 11:27:50;;;;;;;8.18;1.45;;;20.00;99.90;;;;;;5012745;28;20058;-74
2022/09/09 11:30:40;;;;;;;8.18;1.83;;;19.90;99.90;;;;;;5015073;28;20042;-71
2022/09/09 11:33:32;;;;;;;5.45;1.52;;;20.10;99.90;;;;;;5011438;28;20034;-73
2022/09/09 11:36:24;;;;;;;5.60;1.30;;;19.80;99.90;;;;;;5014694;28;20049;-72
2022/09/09 11:38:52;;;;;;;9.88;1.40;;;20.10;99.90;;;;;;5021061;28;20050;-71
2022/09/09 11:41:20;;;;;;;7.00;1.42;;;20.20;99.90;;;;;;5030557;28;20081;-71
2022/09/09 11:43:51;;;;;;;7.63;1.60;;;19.80;99.90;;;;;;5009822;28;20038;-71
2022/09/09 11:46:31;;;;;;;10.35;1.70;;;19.10;99.90;;;;;;4994089;28;20119;-71
2022/09/09 11:49:02;;;;;;;11.00;2.10;;;18.90;99.90;;;;;;5011062;28;20129;-71
2022/09/09 11:51:30;;;;;;;7.07;1.73;;;18.70;99.90;;;;;;5011633;28;20050;-71
2022/09/09 11:54:22;;;;;;;7.45;1.60;;;19.20;99.90;;;;;;5009512;28;20037;-71
2022/09/09 11:56:48;;;;;;;5.00;2.10;;;19.10;99.90;;;;;;5010436;28;20447;-73
2022/09/09 11:59:27;;;;;;;6.22;1.73;;;19.20;99.90;;;;;;5010415;28;20038;-74
2022/09/09 12:02:01;;;;;;;6.03;2.03;;;19.50;99.90;;;;;;5010379;28;20492;-73
2022/09/09 12:04:36;;;;;;;10.60;2.22;;;19.90;99.90;;;;;;5009812;28;20052;-71
2022/09/09 12:07:30;;;;;;;7.47;2.42;;;19.80;99.90;;;;;;5007979;28;20042;-71
2022/09/09 12:10:01;;;;;;;6.32;2.03;;;19.90;99.90;;;;;;5013475;28;20088;-71
2022/09/09 12:12:31;;;;;;;8.10;1.85;;;19.90;99.90;;;;;;5011730;28;20045;-71
2022/09/09 12:14:59;;;;;;;8.30;2.45;;;19.80;99.90;;;;;;5016206;28;20038;-71
2022/09/09 12:17:28;;;;;;;10.18;3.10;;;19.80;99.90;;;;;;5014444;28;20073;-71
2022/09/09 12:20:12;;;;;;;4.20;1.83;;;20.80;99.90;;;;;;5016926;28;20077;-72
2022/09/09 12:23:05;;;;;;;11.30;2.60;;;20.00;99.90;;;;;;5014512;28;20072;-72
2022/09/09 12:25:55;;;;;;;8.07;2.20;;;19.80;99.90;;;;;;5013058;28;20514;-70
2022/09/09 12:28:46;;;;;;;6.32;2.40;;;19.90;99.90;;;;;;5013592;28;20454;-71
2022/09/09 12:31:56;;;;;;;6.70;3.45;;;19.60;99.90;;;;;;5013303;28;20084;-71
2022/09/09 12:34:43;;;;;;;9.82;2.05;;;19.80;99.90;;;;;;4937971;29;20039;-71
2022/09/09 12:37:40;;;;;;;9.25;2.67;;;19.80;99.90;;;;;;4955724;29;20039;-73
2022/09/09 12:40:22;;;;;;;9.52;2.15;;;20.00;99.90;;;;;;5000592;28;20085;-72
2022/09/09 12:42:48;;;;;;;8.02;2.33;;;20.10;99.90;;;;;;4997470;28;20048;-72
2022/09/09 12:45:24;;;;;;;8.93;2.25;;;20.10;99.90;;;;;;5014238;28;20038;-71
2022/09/09 12:48:01;;;;;;;5.32;2.13;;;20.20;99.90;;;;;;5013156;28;20033;-72
2022/09/09 12:50:43;;;;;;;6.30;1.83;;;20.30;99.90;;;;;;5014227;28;20100;-72
2022/09/09 12:53:36;;;;;;;5.65;1.60;;;20.40;99.90;;;;;;5014468;28;20053;-72
2022/09/09 12:56:09;;;;;;;6.43;1.80;;;20.30;99.90;;;;;;5010810;28;20152;-72
2022/09/09 12:58:37;;;;;;;4.38;1.55;;;20.30;99.90;;;;;;5014049;28;20052;-72
2022/09/09 13:01:05;;;;;;;7.60;1.70;;;20.40;99.90;;;;;;4997054;28;20510;-72
2022/09/09 13:03:32;;;;;;;5.28;1.80;;;20.90;99.90;;;;;;4996882;28;20101;-74
2022/09/09 13:06:11;;;;;;;5.80;1.60;;;20.40;99.90;;;;;;5012310;28;20045;-72
2022/09/09 13:08:36;;;;;;;8.20;2.67;;;20.40;99.90;;;;;;4996653;28;20052;-72
2022/09/09 13:11:09;;;;;;;3.67;1.42;;;20.20;99.90;;;;;;5012936;28;20121;-73
2022/09/09 13:13:37;;;;;;;4.10;1.67;;;19.90;99.90;;;;;;5013153;28;20495;-72